Time;durP1;ratioP1;P1;durP2;ratioP2;P2;SDS_P1;SDS_P2;PMS_P1;PMS_P2;Temp;Humidity;BMP_temperature;BMP_pressure;BME280_temperature;BME280_humidity;BME280_pressure;Samples;Min_cycle;Max_cycle;Signal;HPM_P1;HPM_P2
2022/07/29 00:02:25;;;;;;;3.42;1.00;;;15.20;99.90;;;;;;4991130;28;20370;-78
2022/07/29 00:04:51;;;;;;;3.53;1.08;;;15.20;99.90;;;;;;5005328;28;20045;-78
2022/07/29 00:07:16;;;;;;;3.53;0.98;;;16.00;99.90;;;;;;5008767;28;20049;-78
2022/07/29 00:09:42;;;;;;;4.65;1.02;;;15.20;99.90;;;;;;4997486;28;20073;-78
2022/07/29 00:12:08;;;;;;;5.55;1.25;;;15.20;99.90;;;;;;4991701;28;20566;-78
2022/07/29 00:14:33;;;;;;;2.70;1.00;;;15.20;99.90;;;;;;4988918;28;20436;-78
2022/07/29 00:16:59;;;;;;;3.42;1.20;;;15.20;99.90;;;;;;4992100;28;20053;-78
2022/07/29 00:19:24;;;;;;;2.05;0.80;;;15.20;99.90;;;;;;5009567;28;20461;-79
2022/07/29 00:21:50;;;;;;;1.98;1.00;;;15.20;99.90;;;;;;5005353;28;20041;-78
2022/07/29 00:24:16;;;;;;;4.32;1.00;;;15.20;99.90;;;;;;5008819;28;20042;-78
2022/07/29 00:26:41;;;;;;;3.45;1.30;;;15.20;99.90;;;;;;5010298;28;20042;-79
2022/07/29 00:29:07;;;;;;;3.90;1.20;;;15.70;99.90;;;;;;5010251;28;20120;-78
2022/07/29 00:31:33;;;;;;;4.10;1.10;;;15.40;99.90;;;;;;5010682;28;20066;-78
2022/07/29 00:33:58;;;;;;;3.13;1.42;;;15.30;99.90;;;;;;5007710;28;20088;-79
2022/07/29 00:36:24;;;;;;;4.70;1.00;;;15.20;99.90;;;;;;4991578;28;20037;-79
2022/07/29 00:38:50;;;;;;;2.10;1.13;;;15.20;99.90;;;;;;5002896;28;20042;-79
2022/07/29 00:41:17;;;;;;;5.13;1.70;;;15.20;99.90;;;;;;5008989;28;20041;-79
2022/07/29 00:43:43;;;;;;;3.60;0.95;;;15.20;99.90;;;;;;5009706;28;20082;-78
2022/07/29 00:46:09;;;;;;;4.03;1.17;;;15.30;99.90;;;;;;4982375;28;20070;-78
2022/07/29 00:48:34;;;;;;;3.63;1.08;;;15.20;99.90;;;;;;4988609;28;20088;-78
2022/07/29 00:51:02;;;;;;;3.85;1.20;;;15.20;99.90;;;;;;4978358;28;20108;-79
2022/07/29 00:53:30;;;;;;;4.45;1.20;;;15.10;99.90;;;;;;4990639;28;20051;-78
2022/07/29 00:55:56;;;;;;;4.10;1.60;;;15.10;99.90;;;;;;4973477;28;20054;-79
2022/07/29 00:58:22;;;;;;;3.58;1.30;;;15.10;99.90;;;;;;4984530;28;20042;-78
2022/07/29 01:00:47;;;;;;;2.60;0.95;;;15.10;99.90;;;;;;5009668;28;20046;-78
2022/07/29 01:03:13;;;;;;;2.78;1.23;;;15.10;99.90;;;;;;5001216;28;20099;-79
2022/07/29 01:05:42;;;;;;;3.28;1.30;;;15.10;99.90;;;;;;4992416;28;20378;-79
2022/07/29 01:08:10;;;;;;;5.50;1.42;;;15.10;99.90;;;;;;5006647;28;20053;-79
2022/07/29 01:10:37;;;;;;;5.07;1.20;;;15.00;99.90;;;;;;5007788;28;20038;-79
2022/07/29 01:13:03;;;;;;;2.58;1.20;;;15.00;99.90;;;;;;5008805;28;20057;-79
2022/07/29 01:15:29;;;;;;;3.45;1.10;;;15.60;99.90;;;;;;4991549;28;20124;-79
2022/07/29 01:18:02;;;;;;;4.82;1.27;;;15.00;99.90;;;;;;5009001;28;20133;-79
2022/07/29 01:21:05;;;;;;;2.42;0.95;;;15.00;99.90;;;;;;5010575;28;20436;-79
2022/07/29 01:23:52;;;;;;;4.38;1.35;;;15.00;99.90;;;;;;4991670;28;20165;-79
2022/07/29 01:26:24;;;;;;;7.15;1.40;;;15.00;99.90;;;;;;4975200;28;20093;-79
2022/07/29 01:29:11;;;;;;;5.85;1.27;;;15.00;99.90;;;;;;4989643;28;20037;-79
2022/07/29 01:31:55;;;;;;;4.93;1.30;;;15.00;99.90;;;;;;4989962;28;20464;-79
2022/07/29 01:34:29;;;;;;;5.03;1.55;;;14.90;99.90;;;;;;4999418;28;20057;-78
2022/07/29 01:37:15;;;;;;;4.20;1.30;;;14.90;99.90;;;;;;4986959;28;20126;-78
2022/07/29 01:39:44;;;;;;;8.93;1.38;;;14.90;99.90;;;;;;5007141;28;20065;-79
2022/07/29 01:42:21;;;;;;;4.30;1.45;;;14.90;99.90;;;;;;5008661;28;20054;-79
2022/07/29 01:45:02;;;;;;;4.40;1.30;;;14.90;99.90;;;;;;4985266;28;20084;-79
2022/07/29 01:47:37;;;;;;;6.03;1.58;;;14.90;99.90;;;;;;4992487;28;20046;-79
2022/07/29 01:50:08;;;;;;;6.18;1.85;;;14.90;99.90;;;;;;5009154;28;20050;-79
2022/07/29 01:52:39;;;;;;;5.38;1.90;;;14.90;99.90;;;;;;4995712;28;20189;-79
2022/07/29 01:55:11;;;;;;;4.32;1.50;;;14.90;99.90;;;;;;4995222;28;20058;-79
2022/07/29 01:57:40;;;;;;;5.57;1.65;;;14.90;99.90;;;;;;5013618;28;20078;-79
2022/07/29 02:00:07;;;;;;;6.43;1.75;;;14.90;99.90;;;;;;5010649;28;20049;-79
2022/07/29 02:02:35;;;;;;;3.97;1.48;;;14.90;99.90;;;;;;5011764;28;20115;-79
2022/07/29 02:05:02;;;;;;;4.35;1.38;;;15.20;99.90;;;;;;4995685;28;20515;-79
2022/07/29 02:07:31;;;;;;;6.05;1.40;;;14.90;99.90;;;;;;4994067;28;20377;-79
2022/07/29 02:09:57;;;;;;;5.43;1.55;;;14.90;99.90;;;;;;4993806;28;20552;-79
2022/07/29 02:12:25;;;;;;;4.13;1.48;;;14.90;99.90;;;;;;4994891;28;20046;-79
2022/07/29 02:14:53;;;;;;;3.05;1.10;;;14.90;99.90;;;;;;5011449;28;20555;-79
2022/07/29 02:17:33;;;;;;;2.45;1.10;;;14.90;99.90;;;;;;4993963;28;20096;-79
2022/07/29 02:20:03;;;;;;;5.45;1.20;;;14.90;99.90;;;;;;5012442;28;20485;-79
2022/07/29 02:22:30;;;;;;;4.05;1.20;;;15.00;99.90;;;;;;5011459;28;20037;-79
2022/07/29 02:24:58;;;;;;;2.88;1.23;;;15.40;99.90;;;;;;5012441;28;20125;-80
2022/07/29 02:27:27;;;;;;;5.75;1.20;;;15.00;99.90;;;;;;5013124;28;20054;-79
2022/07/29 02:29:55;;;;;;;4.25;1.17;;;15.00;99.90;;;;;;5011624;28;20120;-79
2022/07/29 02:32:22;;;;;;;3.45;0.98;;;15.00;99.90;;;;;;5011425;28;20046;-79
2022/07/29 02:34:49;;;;;;;8.70;1.20;;;15.00;99.90;;;;;;5012741;28;20048;-80
2022/07/29 02:37:16;;;;;;;4.07;1.17;;;15.00;99.90;;;;;;5010602;28;20049;-79
2022/07/29 02:39:44;;;;;;;2.60;0.90;;;15.70;99.90;;;;;;5011125;28;20063;-79
2022/07/29 02:42:13;;;;;;;6.18;1.40;;;15.00;99.90;;;;;;5009464;28;20050;-80
2022/07/29 02:44:38;;;;;;;3.33;1.10;;;15.20;99.90;;;;;;5009241;28;20042;-79
2022/07/29 02:47:16;;;;;;;3.03;0.90;;;15.00;99.90;;;;;;5011001;28;20048;-79
2022/07/29 02:50:20;;;;;;;3.30;0.90;;;15.00;99.90;;;;;;5011741;28;20056;-79
2022/07/29 02:52:57;;;;;;;2.88;0.93;;;15.00;99.90;;;;;;5012307;28;20062;-80
2022/07/29 02:55:29;;;;;;;3.65;0.90;;;15.00;99.90;;;;;;5010271;28;20046;-79
2022/07/29 02:58:12;;;;;;;3.88;1.00;;;15.00;99.90;;;;;;5011883;28;20037;-79
2022/07/29 03:00:38;;;;;;;6.07;1.02;;;15.00;99.90;;;;;;4990540;28;20046;-79
2022/07/29 03:03:14;;;;;;;3.10;0.90;;;15.00;99.90;;;;;;5000421;28;20074;-79
2022/07/29 03:05:40;;;;;;;4.68;1.25;;;15.00;99.90;;;;;;4992670;28;20049;-79
2022/07/29 03:08:08;;;;;;;5.30;0.90;;;15.10;99.90;;;;;;4999732;28;20046;-79
2022/07/29 03:10:36;;;;;;;5.30;1.05;;;14.90;99.90;;;;;;5011234;28;20108;-80
2022/07/29 03:13:03;;;;;;;5.63;1.10;;;14.90;99.90;;;;;;4992367;28;20052;-80
2022/07/29 03:15:29;;;;;;;3.53;1.10;;;14.90;99.90;;;;;;4994001;28;20054;-80
2022/07/29 03:17:55;;;;;;;3.63;0.98;;;14.90;99.90;;;;;;4998132;28;20042;-79
2022/07/29 03:20:21;;;;;;;4.70;0.85;;;15.40;99.90;;;;;;5011476;28;20116;-80
2022/07/29 03:22:47;;;;;;;3.42;1.20;;;14.90;99.90;;;;;;5010458;28;20046;-80
2022/07/29 03:25:15;;;;;;;5.03;0.90;;;15.00;99.90;;;;;;5009662;28;20042;-79
2022/07/29 03:27:42;;;;;;;2.83;1.00;;;14.90;99.90;;;;;;4990952;28;20053;-79
2022/07/29 03:30:09;;;;;;;5.40;1.25;;;15.00;99.90;;;;;;4988506;28;20098;-80
2022/07/29 03:32:35;;;;;;;5.28;1.00;;;14.90;99.90;;;;;;4992021;28;20053;-80
2022/07/29 03:35:01;;;;;;;4.40;0.90;;;15.00;99.90;;;;;;5010233;28;20736;-79
2022/07/29 03:37:26;;;;;;;4.18;1.10;;;14.90;99.90;;;;;;5009440;28;20034;-80
2022/07/29 03:39:55;;;;;;;5.47;1.00;;;14.80;99.90;;;;;;5010483;28;20117;-80
2022/07/29 03:42:23;;;;;;;6.72;1.40;;;14.90;99.90;;;;;;5010644;28;20073;-80
2022/07/29 03:44:51;;;;;;;4.13;1.10;;;14.90;99.90;;;;;;4991266;28;20058;-79
2022/07/29 03:47:22;;;;;;;6.63;1.30;;;14.90;99.90;;;;;;4992144;28;20436;-80
2022/07/29 03:49:50;;;;;;;5.63;1.30;;;14.90;99.90;;;;;;5010358;28;20042;-80
2022/07/29 03:52:16;;;;;;;4.20;1.30;;;14.90;99.90;;;;;;5010854;28;20049;-80
2022/07/29 03:54:42;;;;;;;6.70;1.20;;;14.90;99.90;;;;;;5010073;28;20053;-80
2022/07/29 03:57:11;;;;;;;4.22;1.10;;;15.40;99.90;;;;;;5007754;28;20401;-80
2022/07/29 03:59:37;;;;;;;6.88;1.27;;;14.90;99.90;;;;;;5009588;28;20370;-80
2022/07/29 04:02:05;;;;;;;4.85;1.10;;;15.50;99.90;;;;;;4992486;28;20049;-80
2022/07/29 04:04:34;;;;;;;5.70;1.45;;;14.90;99.90;;;;;;5009721;28;20743;-80
2022/07/29 04:07:00;;;;;;;8.73;1.20;;;14.90;99.90;;;;;;5008104;28;20380;-80
2022/07/29 04:09:26;;;;;;;4.50;1.17;;;14.90;99.90;;;;;;5011013;28;20485;-80
2022/07/29 04:11:52;;;;;;;3.65;1.00;;;14.90;99.90;;;;;;4990869;28;20045;-80
2022/07/29 04:14:18;;;;;;;4.88;1.02;;;15.00;99.90;;;;;;4991113;28;20553;-80
2022/07/29 04:16:43;;;;;;;2.90;1.38;;;14.90;99.90;;;;;;4992998;28;20120;-80
2022/07/29 04:19:09;;;;;;;3.05;1.13;;;15.00;99.90;;;;;;5008459;28;20045;-80
2022/07/29 04:21:39;;;;;;;4.82;1.40;;;14.90;99.90;;;;;;5009755;28;20037;-79
2022/07/29 04:24:05;;;;;;;5.45;1.25;;;14.90;99.90;;;;;;4988187;28;20120;-80
2022/07/29 04:26:31;;;;;;;5.55;1.40;;;14.90;99.90;;;;;;5011533;28;20521;-80
2022/07/29 04:28:56;;;;;;;3.53;1.02;;;14.90;99.90;;;;;;4978871;28;20050;-80
2022/07/29 04:31:22;;;;;;;4.07;1.10;;;14.90;99.90;;;;;;4990122;28;20049;-80
2022/07/29 04:33:48;;;;;;;3.80;1.20;;;15.10;99.90;;;;;;5003470;28;20065;-80
2022/07/29 04:36:13;;;;;;;6.72;1.30;;;14.90;99.90;;;;;;5007457;28;20038;-80
2022/07/29 04:38:39;;;;;;;3.80;1.13;;;15.00;99.90;;;;;;5008759;28;20049;-80
2022/07/29 04:41:06;;;;;;;4.57;1.30;;;15.00;99.90;;;;;;5006922;28;20528;-80
2022/07/29 04:43:32;;;;;;;4.45;1.30;;;15.00;99.90;;;;;;5009047;28;20131;-80
2022/07/29 04:45:58;;;;;;;7.63;1.63;;;15.00;99.90;;;;;;4992593;28;20054;-80
2022/07/29 04:48:24;;;;;;;3.65;1.20;;;15.00;99.90;;;;;;5010440;28;20096;-80
2022/07/29 04:50:49;;;;;;;4.25;1.02;;;15.00;99.90;;;;;;5007991;28;20149;-80
2022/07/29 04:53:15;;;;;;;5.63;1.25;;;15.00;99.90;;;;;;4989498;28;20048;-79
2022/07/29 04:55:41;;;;;;;3.88;1.40;;;15.60;99.90;;;;;;5008134;28;20528;-81
2022/07/29 04:58:07;;;;;;;7.15;1.73;;;15.00;99.90;;;;;;5008150;28;20054;-80
2022/07/29 05:00:33;;;;;;;4.28;1.10;;;15.00;99.90;;;;;;4990626;28;20046;-80
2022/07/29 05:02:59;;;;;;;6.57;1.60;;;15.00;99.90;;;;;;4990518;28;20429;-80
2022/07/29 05:05:25;;;;;;;5.13;1.02;;;15.00;99.90;;;;;;5010333;28;20065;-80
2022/07/29 05:07:51;;;;;;;2.92;1.00;;;15.00;99.90;;;;;;4992236;28;20057;-80
2022/07/29 05:10:16;;;;;;;4.47;1.40;;;15.00;99.90;;;;;;4987532;28;20053;-80
2022/07/29 05:12:42;;;;;;;3.58;1.45;;;15.10;99.90;;;;;;5010087;28;20038;-80
2022/07/29 05:15:08;;;;;;;3.92;1.05;;;15.10;99.90;;;;;;5008865;28;20050;-80
2022/07/29 05:17:34;;;;;;;4.70;1.15;;;15.10;99.90;;;;;;4989962;28;20045;-80
2022/07/29 05:19:59;;;;;;;5.65;1.60;;;15.20;99.90;;;;;;5007996;28;20124;-81
2022/07/29 05:22:25;;;;;;;5.22;1.33;;;15.20;99.90;;;;;;5006718;28;20497;-80
2022/07/29 05:24:51;;;;;;;5.53;1.40;;;15.50;99.90;;;;;;4992997;28;20054;-80
2022/07/29 05:27:16;;;;;;;6.68;1.30;;;15.30;99.90;;;;;;5013607;28;20037;-81
2022/07/29 05:29:42;;;;;;;5.65;1.33;;;15.30;99.90;;;;;;4995524;28;20052;-80
2022/07/29 05:32:08;;;;;;;7.57;1.50;;;15.40;99.90;;;;;;5011730;28;20512;-81
2022/07/29 05:34:34;;;;;;;3.90;1.17;;;15.40;99.90;;;;;;5011808;28;20101;-81
2022/07/29 05:36:59;;;;;;;5.35;1.27;;;15.50;99.90;;;;;;4996137;28;20096;-81
2022/07/29 05:39:25;;;;;;;6.68;1.40;;;16.00;99.90;;;;;;4989497;28;20593;-80
2022/07/29 05:41:51;;;;;;;4.68;1.77;;;15.50;99.90;;;;;;4995263;28;20077;-80
2022/07/29 05:44:16;;;;;;;3.97;1.20;;;15.50;99.90;;;;;;5011137;28;20112;-81
2022/07/29 05:46:42;;;;;;;5.15;1.38;;;15.50;99.90;;;;;;5011864;28;20046;-80
2022/07/29 05:49:07;;;;;;;6.50;1.33;;;15.60;99.90;;;;;;4992840;28;20067;-80
2022/07/29 05:51:34;;;;;;;5.90;1.58;;;15.60;99.90;;;;;;5002327;28;20042;-80
2022/07/29 05:54:00;;;;;;;3.95;1.30;;;15.60;99.90;;;;;;5002510;28;20532;-80
2022/07/29 05:56:26;;;;;;;6.63;1.50;;;15.90;99.90;;;;;;4988535;28;20130;-80
2022/07/29 05:58:52;;;;;;;4.93;1.70;;;15.90;99.90;;;;;;5012125;28;20148;-80
2022/07/29 06:01:17;;;;;;;4.50;1.30;;;15.70;99.90;;;;;;4992866;28;20447;-80
2022/07/29 06:03:43;;;;;;;5.15;1.60;;;15.70;99.90;;;;;;4995776;28;20045;-79
2022/07/29 06:06:09;;;;;;;4.78;1.30;;;15.70;99.90;;;;;;5010590;28;20050;-79
2022/07/29 06:08:36;;;;;;;9.10;1.73;;;16.30;99.90;;;;;;4996115;28;20057;-81
2022/07/29 06:11:03;;;;;;;5.00;1.50;;;15.80;99.90;;;;;;5012692;28;20064;-81
2022/07/29 06:13:29;;;;;;;4.07;1.42;;;15.90;99.90;;;;;;5011560;28;20049;-80
2022/07/29 06:15:54;;;;;;;5.22;1.27;;;15.90;99.90;;;;;;5012740;28;20057;-80
2022/07/29 06:18:23;;;;;;;3.90;1.52;;;15.90;99.90;;;;;;5012324;28;20507;-79
2022/07/29 06:20:50;;;;;;;5.47;1.20;;;15.90;99.90;;;;;;5010597;28;20042;-79
2022/07/29 06:23:17;;;;;;;3.65;1.08;;;16.00;99.90;;;;;;5009457;28;20057;-81
2022/07/29 06:25:42;;;;;;;6.00;1.80;;;16.00;99.90;;;;;;5010272;28;20057;-80
2022/07/29 06:28:08;;;;;;;6.32;1.40;;;16.10;99.90;;;;;;4992696;28;20050;-81
2022/07/29 06:30:34;;;;;;;5.50;1.52;;;16.10;99.90;;;;;;5012272;28;20045;-81
2022/07/29 06:33:01;;;;;;;3.13;0.90;;;16.20;99.90;;;;;;5009739;28;20034;-82
2022/07/29 06:35:26;;;;;;;8.57;1.70;;;16.20;99.90;;;;;;5008881;28;20092;-81
2022/07/29 06:37:52;;;;;;;5.13;1.30;;;16.20;99.90;;;;;;4994138;28;20037;-81
2022/07/29 06:43:02;;;;;;;5.82;1.48;;;16.30;99.90;;;;;;5004715;28;20042;-81
2022/07/29 06:45:27;;;;;;;6.60;1.23;;;16.40;99.90;;;;;;5015357;28;20496;-81
2022/07/29 06:47:53;;;;;;;8.10;1.83;;;16.60;99.90;;;;;;4992344;28;20045;-82
2022/07/29 06:50:18;;;;;;;10.43;1.75;;;16.60;99.90;;;;;;5010810;28;20072;-81
2022/07/29 06:52:44;;;;;;;6.13;1.70;;;16.90;99.90;;;;;;4994244;28;20054;-81
2022/07/29 06:55:10;;;;;;;8.70;1.88;;;16.70;99.90;;;;;;4991618;28;20068;-81
2022/07/29 06:57:35;;;;;;;4.63;1.45;;;16.80;99.90;;;;;;5008652;28;20044;-81
2022/07/29 07:00:04;;;;;;;3.67;1.10;;;16.80;99.90;;;;;;5001125;28;20078;-82
2022/07/29 07:02:29;;;;;;;4.60;1.13;;;16.80;99.90;;;;;;4991717;28;20050;-79
2022/07/29 07:04:55;;;;;;;3.92;1.52;;;16.80;99.90;;;;;;5010860;28;20054;-79
2022/07/29 07:07:20;;;;;;;4.60;1.58;;;17.00;99.90;;;;;;4994190;28;20038;-79
2022/07/29 07:09:46;;;;;;;6.30;1.83;;;16.90;99.90;;;;;;5012255;28;20045;-79
2022/07/29 07:12:11;;;;;;;2.95;1.08;;;16.90;99.90;;;;;;5016280;28;20420;-79
2022/07/29 07:14:37;;;;;;;7.63;1.65;;;16.90;99.90;;;;;;5012677;28;20104;-79
2022/07/29 07:17:03;;;;;;;6.13;1.60;;;16.90;99.90;;;;;;5010451;28;20048;-79
2022/07/29 07:19:29;;;;;;;7.10;1.70;;;17.00;99.90;;;;;;5011996;28;20120;-79
2022/07/29 07:21:55;;;;;;;4.47;1.75;;;17.00;99.90;;;;;;4978102;28;20046;-78
2022/07/29 07:24:21;;;;;;;3.75;1.27;;;17.10;99.90;;;;;;4996875;28;20133;-80
2022/07/29 07:26:46;;;;;;;4.70;1.35;;;17.10;99.90;;;;;;5012615;28;20045;-79
2022/07/29 07:29:12;;;;;;;4.80;1.67;;;17.20;99.90;;;;;;5012479;28;20397;-79
2022/07/29 07:31:38;;;;;;;7.75;1.88;;;17.20;99.90;;;;;;5003520;28;20394;-79
2022/07/29 07:34:04;;;;;;;7.93;2.00;;;17.30;99.90;;;;;;5012902;28;20038;-79
2022/07/29 07:36:29;;;;;;;5.15;1.83;;;17.40;99.90;;;;;;5009150;28;20030;-79
2022/07/29 07:38:55;;;;;;;6.55;2.10;;;17.70;99.90;;;;;;5013997;28;20523;-79
2022/07/29 07:41:22;;;;;;;5.80;2.08;;;17.50;99.90;;;;;;5008207;28;20065;-79
2022/07/29 07:43:47;;;;;;;6.13;1.73;;;17.60;99.90;;;;;;5031993;28;20037;-79
2022/07/29 07:46:13;;;;;;;4.28;1.63;;;17.60;99.90;;;;;;4992383;28;20534;-79
2022/07/29 07:48:38;;;;;;;6.07;1.60;;;17.60;99.90;;;;;;5009420;28;20045;-80
2022/07/29 07:51:04;;;;;;;8.55;2.20;;;17.70;99.90;;;;;;4992053;28;20050;-80
2022/07/29 07:53:30;;;;;;;4.85;1.73;;;17.70;99.90;;;;;;5009043;28;20030;-80
2022/07/29 07:55:56;;;;;;;6.35;2.40;;;17.70;99.90;;;;;;5010525;28;20061;-80
2022/07/29 07:58:21;;;;;;;5.55;2.10;;;17.70;99.90;;;;;;5009193;28;20474;-79
2022/07/29 08:00:47;;;;;;;4.60;1.63;;;17.80;99.90;;;;;;4990315;28;20050;-80
2022/07/29 08:03:13;;;;;;;7.75;2.20;;;17.90;99.90;;;;;;5011721;28;20057;-80
2022/07/29 08:05:40;;;;;;;4.07;1.58;;;18.00;99.90;;;;;;5009998;28;20099;-79
2022/07/29 08:08:06;;;;;;;6.90;2.25;;;18.20;99.90;;;;;;5011972;28;20049;-80
2022/07/29 08:13:16;;;;;;;;;;;18.40;99.90;;;;;;4993644;28;20413;-80
2022/07/29 08:15:42;;;;;;;6.35;1.95;;;18.40;99.90;;;;;;4992838;28;19925;-80
2022/07/29 08:18:08;;;;;;;7.68;1.90;;;18.60;99.90;;;;;;5028629;28;20378;-80
2022/07/29 08:20:35;;;;;;;6.43;2.20;;;18.70;99.90;;;;;;5022139;28;20057;-80
2022/07/29 08:23:02;;;;;;;7.30;2.30;;;18.70;99.90;;;;;;4993942;28;20045;-81
2022/07/29 08:25:28;;;;;;;4.22;2.08;;;18.70;99.90;;;;;;5018230;28;20048;-80
2022/07/29 08:27:53;;;;;;;9.18;2.40;;;18.80;99.90;;;;;;5007582;28;20041;-80
2022/07/29 08:30:19;;;;;;;2.78;1.50;;;18.80;99.90;;;;;;4991585;28;20081;-80
2022/07/29 08:32:47;;;;;;;13.35;2.47;;;18.80;99.90;;;;;;5010016;28;20124;-80
2022/07/29 08:35:12;;;;;;;5.47;1.52;;;18.80;99.90;;;;;;4998996;28;20045;-80
2022/07/29 08:37:38;;;;;;;7.55;2.05;;;18.90;99.90;;;;;;5020549;28;20038;-80
2022/07/29 08:40:05;;;;;;;6.63;1.95;;;18.90;99.90;;;;;;5028946;28;20046;-79
2022/07/29 08:42:32;;;;;;;8.13;2.28;;;18.90;99.90;;;;;;5006794;28;20042;-80
2022/07/29 08:44:58;;;;;;;5.80;1.98;;;18.90;99.90;;;;;;4991027;28;20057;-79
2022/07/29 08:47:27;;;;;;;7.38;2.47;;;18.90;99.90;;;;;;4992706;28;20092;-79
2022/07/29 08:49:52;;;;;;;7.22;2.15;;;18.90;99.90;;;;;;4991075;28;20508;-79
2022/07/29 08:52:19;;;;;;;6.00;2.20;;;18.90;99.90;;;;;;5008526;28;20042;-79
2022/07/29 08:54:45;;;;;;;7.65;2.17;;;18.90;99.90;;;;;;4999414;28;20050;-79
2022/07/29 08:57:16;;;;;;;9.00;2.50;;;18.90;99.90;;;;;;4990512;28;20089;-79
2022/07/29 08:59:42;;;;;;;6.97;2.40;;;18.90;99.90;;;;;;4982850;28;20053;-79
2022/07/29 09:02:21;;;;;;;7.03;2.15;;;19.00;99.90;;;;;;5012342;28;20504;-78
2022/07/29 09:04:47;;;;;;;5.47;2.30;;;19.10;99.90;;;;;;5014673;28;20512;-80
2022/07/29 09:07:18;;;;;;;8.07;1.85;;;19.20;99.90;;;;;;4993000;28;20033;-79
2022/07/29 09:09:44;;;;;;;6.18;1.70;;;19.50;99.90;;;;;;4995215;28;20053;-80
2022/07/29 09:12:12;;;;;;;8.27;2.20;;;19.50;99.90;;;;;;4995276;28;20049;-80
2022/07/29 09:14:39;;;;;;;7.18;2.10;;;19.60;99.90;;;;;;4996697;28;20054;-80
2022/07/29 09:17:05;;;;;;;10.70;2.85;;;19.60;99.90;;;;;;5011590;28;20133;-81
2022/07/29 09:19:34;;;;;;;5.75;1.80;;;20.00;99.90;;;;;;5016504;28;20042;-81
2022/07/29 09:22:01;;;;;;;7.03;2.33;;;19.70;99.90;;;;;;5024598;28;20038;-80
2022/07/29 09:24:40;;;;;;;10.75;2.10;;;19.70;99.90;;;;;;5023343;28;20058;-81
2022/07/29 09:27:22;;;;;;;7.20;1.90;;;19.70;99.90;;;;;;4996857;28;20042;-80
2022/07/29 09:30:07;;;;;;;4.13;1.55;;;19.70;99.90;;;;;;5012689;28;20108;-79
2022/07/29 09:32:53;;;;;;;4.50;1.42;;;19.70;99.90;;;;;;4993438;28;20133;-79
2022/07/29 09:35:21;;;;;;;6.55;1.63;;;19.80;99.90;;;;;;5012265;28;20037;-79
2022/07/29 09:37:47;;;;;;;4.75;1.70;;;19.80;99.90;;;;;;5012633;28;20583;-80
2022/07/29 09:40:17;;;;;;;6.60;1.98;;;19.90;99.90;;;;;;4994702;28;20077;-80
2022/07/29 09:42:42;;;;;;;6.38;1.73;;;19.90;99.90;;;;;;4991328;28;20132;-80
2022/07/29 09:45:09;;;;;;;5.63;1.85;;;19.90;99.90;;;;;;4994430;28;20057;-80
2022/07/29 09:47:46;;;;;;;9.52;2.17;;;20.00;99.90;;;;;;5001206;28;20038;-79
2022/07/29 09:50:12;;;;;;;4.18;1.83;;;20.00;99.90;;;;;;4992159;28;20453;-79
2022/07/29 09:52:49;;;;;;;4.72;1.70;;;20.30;99.90;;;;;;5010347;28;20149;-79
2022/07/29 09:55:15;;;;;;;6.95;1.58;;;20.10;99.90;;;;;;4991399;28;20142;-79
2022/07/29 09:57:45;;;;;;;4.45;1.33;;;20.10;99.90;;;;;;4991941;28;20161;-80
2022/07/29 10:00:16;;;;;;;5.97;1.67;;;20.10;99.90;;;;;;4995626;28;20050;-79
2022/07/29 10:02:43;;;;;;;5.05;1.73;;;20.10;99.90;;;;;;4995099;28;20505;-80
2022/07/29 10:05:36;;;;;;;3.22;1.55;;;20.10;99.90;;;;;;4994786;28;20054;-80
2022/07/29 10:08:02;;;;;;;5.50;1.70;;;20.10;99.90;;;;;;5013657;28;20050;-80
2022/07/29 10:10:29;;;;;;;5.90;2.03;;;20.10;99.90;;;;;;4995035;28;20054;-80
2022/07/29 10:12:57;;;;;;;6.32;1.70;;;20.10;99.90;;;;;;5011237;28;20085;-79
2022/07/29 10:15:24;;;;;;;7.50;1.80;;;20.00;99.90;;;;;;4994651;28;20057;-80
2022/07/29 10:17:55;;;;;;;7.18;1.73;;;20.00;99.90;;;;;;5012085;28;20049;-79
2022/07/29 10:20:22;;;;;;;5.75;1.70;;;20.00;99.90;;;;;;5018622;28;20069;-79
2022/07/29 10:22:49;;;;;;;5.72;1.67;;;20.00;99.90;;;;;;4994384;28;20042;-79
2022/07/29 10:25:16;;;;;;;5.75;1.75;;;20.00;99.90;;;;;;5013445;28;20133;-80
2022/07/29 10:27:43;;;;;;;6.95;2.10;;;20.00;99.90;;;;;;5010987;28;20555;-80
2022/07/29 10:30:11;;;;;;;7.38;1.80;;;20.20;99.90;;;;;;4994331;28;20041;-80
2022/07/29 10:32:55;;;;;;;5.18;1.70;;;20.00;99.90;;;;;;4994175;28;20783;-80
2022/07/29 10:35:55;;;;;;;4.40;1.75;;;20.10;99.90;;;;;;4993378;28;20513;-79
2022/07/29 10:38:42;;;;;;;4.43;1.50;;;20.20;99.90;;;;;;4990061;28;20108;-80
2022/07/29 10:41:26;;;;;;;5.68;1.80;;;20.30;99.90;;;;;;4987826;28;20053;-80
2022/07/29 10:43:56;;;;;;;6.95;1.80;;;20.30;99.90;;;;;;5018838;28;20045;-80
2022/07/29 10:46:22;;;;;;;7.10;2.05;;;20.40;99.90;;;;;;5011578;28;20053;-80
2022/07/29 10:49:07;;;;;;;5.80;1.73;;;20.50;99.90;;;;;;4991821;28;20072;-80
2022/07/29 10:51:52;;;;;;;4.55;1.50;;;20.50;99.90;;;;;;4996413;28;20046;-79
2022/07/29 10:54:38;;;;;;;5.55;1.63;;;20.50;99.90;;;;;;4993270;28;20080;-80
2022/07/29 10:57:20;;;;;;;5.70;1.90;;;20.50;99.90;;;;;;5008893;28;20501;-79
2022/07/29 11:00:11;;;;;;;4.57;1.73;;;20.50;99.90;;;;;;4993258;28;20100;-79
2022/07/29 11:02:39;;;;;;;4.55;1.90;;;20.50;99.90;;;;;;4996485;28;20046;-78
2022/07/29 11:05:08;;;;;;;4.05;1.75;;;20.60;99.90;;;;;;4992592;28;20049;-81
2022/07/29 11:07:35;;;;;;;7.45;2.40;;;20.60;99.90;;;;;;4987150;28;20042;-80
2022/07/29 11:10:12;;;;;;;5.30;1.60;;;20.70;99.90;;;;;;5008697;28;20045;-82
2022/07/29 11:12:38;;;;;;;7.07;1.98;;;20.90;99.90;;;;;;4995001;28;20046;-82
2022/07/29 11:15:16;;;;;;;5.57;2.08;;;21.00;99.90;;;;;;4993485;28;20045;-83
2022/07/29 11:17:56;;;;;;;7.20;1.83;;;21.10;99.90;;;;;;5011783;28;20192;-82
2022/07/29 11:20:31;;;;;;;8.63;2.15;;;21.20;99.90;;;;;;4996219;28;20054;-83
2022/07/29 11:22:57;;;;;;;7.38;2.20;;;21.20;99.90;;;;;;5011104;28;20042;-83
2022/07/29 11:25:23;;;;;;;5.70;2.03;;;21.30;99.90;;;;;;5010638;28;20401;-83
2022/07/29 11:27:49;;;;;;;6.82;2.05;;;21.30;99.90;;;;;;4995134;28;20030;-83
2022/07/29 11:30:15;;;;;;;6.20;2.25;;;21.40;99.90;;;;;;4993955;28;20104;-83
2022/07/29 11:32:43;;;;;;;7.13;2.10;;;21.40;99.90;;;;;;5015850;28;20069;-83
2022/07/29 11:35:23;;;;;;;8.70;2.28;;;21.60;99.90;;;;;;5001430;28;20088;-82
2022/07/29 11:38:27;;;;;;;5.47;1.70;;;21.70;99.90;;;;;;5006995;28;20045;-83
2022/07/29 11:41:22;;;;;;;13.13;2.83;;;21.80;99.90;;;;;;4982031;28;20520;-83
2022/07/29 11:43:53;;;;;;;6.18;2.08;;;22.00;99.90;;;;;;4995791;28;20038;-83
2022/07/29 11:46:48;;;;;;;7.30;2.20;;;22.20;99.90;;;;;;4988002;28;20056;-83
2022/07/29 11:49:25;;;;;;;7.25;2.47;;;22.30;99.90;;;;;;4984373;28;20128;-83
2022/07/29 11:51:52;;;;;;;7.55;2.25;;;22.50;99.70;;;;;;4985669;28;20047;-84
2022/07/29 11:54:25;;;;;;;7.78;2.15;;;22.60;99.90;;;;;;5003571;28;20242;-84
2022/07/29 11:56:52;;;;;;;6.55;1.95;;;22.80;99.80;;;;;;5004577;28;20482;-84
2022/07/29 11:59:19;;;;;;;6.75;2.10;;;22.80;99.80;;;;;;4976970;28;20565;-84
2022/07/29 12:01:58;;;;;;;5.43;2.30;;;23.00;99.70;;;;;;4995467;28;20127;-84
2022/07/29 12:04:24;;;;;;;9.40;2.20;;;23.20;97.90;;;;;;5008304;28;20481;-84
2022/07/29 12:06:51;;;;;;;10.02;2.15;;;23.40;99.10;;;;;;4992390;28;20046;-81
2022/07/29 12:09:17;;;;;;;8.13;1.80;;;23.40;98.60;;;;;;5007504;28;20188;-80
2022/07/29 12:11:43;;;;;;;5.97;2.50;;;23.40;98.40;;;;;;4992066;28;20049;-81
2022/07/29 12:14:09;;;;;;;8.02;2.35;;;23.50;98.50;;;;;;4988961;28;20061;-82
2022/07/29 12:16:36;;;;;;;10.57;2.58;;;23.60;98.50;;;;;;5007765;28;20068;-83
2022/07/29 12:19:03;;;;;;;7.10;1.90;;;23.90;98.40;;;;;;4993648;28;20085;-83
2022/07/29 12:21:50;;;;;;;5.95;2.30;;;24.10;97.80;;;;;;5019443;28;20045;-83
2022/07/29 12:24:16;;;;;;;7.47;2.08;;;24.40;96.30;;;;;;5011489;28;20046;-83
2022/07/29 12:26:56;;;;;;;7.55;1.95;;;24.60;96.90;;;;;;4991019;28;20123;-83
2022/07/29 12:29:22;;;;;;;6.35;2.22;;;24.60;96.20;;;;;;4994148;28;20083;-83
2022/07/29 12:31:53;;;;;;;6.72;1.90;;;24.60;96.40;;;;;;4992935;28;20142;-83
2022/07/29 12:34:22;;;;;;;8.63;2.10;;;24.60;96.40;;;;;;5030998;28;20041;-83
2022/07/29 12:36:49;;;;;;;5.30;1.60;;;24.60;96.80;;;;;;5013627;28;20524;-83
2022/07/29 12:39:16;;;;;;;7.28;2.10;;;24.70;97.00;;;;;;4985774;28;20045;-83
2022/07/29 12:41:43;;;;;;;8.40;2.03;;;24.70;96.70;;;;;;4991978;28;20389;-83
2022/07/29 12:44:09;;;;;;;8.40;2.03;;;24.70;96.20;;;;;;4993158;28;20596;-83
2022/07/29 12:46:34;;;;;;;6.75;1.90;;;24.80;96.10;;;;;;5012272;28;20121;-82
2022/07/29 12:49:00;;;;;;;8.85;2.22;;;24.90;96.40;;;;;;5013287;28;20484;-83
2022/07/29 12:51:39;;;;;;;5.07;2.00;;;24.90;96.10;;;;;;5000535;28;20513;-83
2022/07/29 12:54:14;;;;;;;10.68;2.17;;;25.00;95.90;;;;;;4993212;28;20107;-83
2022/07/29 12:56:41;;;;;;;6.57;1.85;;;25.20;95.40;;;;;;4992504;28;20104;-83
2022/07/29 12:59:15;;;;;;;8.80;2.00;;;25.40;95.90;;;;;;5000907;28;20065;-83
2022/07/29 13:01:40;;;;;;;5.10;2.00;;;25.50;95.30;;;;;;4999151;28;20397;-83
2022/07/29 13:04:06;;;;;;;7.20;1.55;;;25.50;95.10;;;;;;4993474;28;20493;-83